sensor_id;sensor_type;location;lat;lon;timestamp;P1;durP1;ratioP1;P2;durP2;ratioP2
42092;SDS011;28974;50.316;18.960;2022-09-09T00:34:12;22.73;;;14.30;;
42092;SDS011;28974;50.316;18.960;2022-09-09T00:58:25;32.60;;;17.77;;
42092;SDS011;28974;50.316;18.960;2022-09-09T01:23:07;43.95;;;24.80;;
42092;SDS011;28974;50.316;18.960;2022-09-09T01:47:37;44.25;;;27.10;;
42092;SDS011;28974;50.316;18.960;2022-09-09T02:11:57;46.35;;;28.70;;
42092;SDS011;28974;50.316;18.960;2022-09-09T02:24:10;49.70;;;28.35;;
42092;SDS011;28974;50.316;18.960;2022-09-09T02:36:19;46.92;;;27.23;;
42092;SDS011;28974;50.316;18.960;2022-09-09T03:00:27;43.20;;;23.35;;
42092;SDS011;28974;50.316;18.960;2022-09-09T03:12:30;41.88;;;26.13;;
42092;SDS011;28974;50.316;18.960;2022-09-09T03:24:33;49.17;;;26.52;;
42092;SDS011;28974;50.316;18.960;2022-09-09T03:36:37;46.78;;;27.05;;
42092;SDS011;28974;50.316;18.960;2022-09-09T03:48:38;41.33;;;24.15;;
42092;SDS011;28974;50.316;18.960;2022-09-09T04:00:39;35.80;;;23.95;;
42092;SDS011;28974;50.316;18.960;2022-09-09T04:12:42;37.08;;;22.60;;
42092;SDS011;28974;50.316;18.960;2022-09-09T04:24:44;31.02;;;21.50;;
42092;SDS011;28974;50.316;18.960;2022-09-09T04:36:44;38.15;;;22.60;;
42092;SDS011;28974;50.316;18.960;2022-09-09T04:48:46;37.67;;;23.30;;
42092;SDS011;28974;50.316;18.960;2022-09-09T05:00:46;68.77;;;34.93;;
42092;SDS011;28974;50.316;18.960;2022-09-09T05:12:53;78.45;;;42.38;;
42092;SDS011;28974;50.316;18.960;2022-09-09T05:24:56;68.72;;;40.95;;
42092;SDS011;28974;50.316;18.960;2022-09-09T05:36:57;61.15;;;28.67;;
42092;SDS011;28974;50.316;18.960;2022-09-09T05:48:59;44.65;;;24.77;;
42092;SDS011;28974;50.316;18.960;2022-09-09T06:01:05;38.17;;;19.95;;
42092;SDS011;28974;50.316;18.960;2022-09-09T06:13:07;35.35;;;19.65;;
42092;SDS011;28974;50.316;18.960;2022-09-09T06:25:09;35.35;;;20.73;;
42092;SDS011;28974;50.316;18.960;2022-09-09T06:37:10;23.25;;;14.35;;
42092;SDS011;28974;50.316;18.960;2022-09-09T06:49:21;15.20;;;11.52;;
42092;SDS011;28974;50.316;18.960;2022-09-09T07:01:22;14.50;;;9.27;;
42092;SDS011;28974;50.316;18.960;2022-09-09T07:13:24;14.98;;;9.35;;
42092;SDS011;28974;50.316;18.960;2022-09-09T07:25:26;14.98;;;8.40;;
42092;SDS011;28974;50.316;18.960;2022-09-09T07:37:31;18.17;;;8.73;;
42092;SDS011;28974;50.316;18.960;2022-09-09T07:49:31;15.95;;;7.18;;
42092;SDS011;28974;50.316;18.960;2022-09-09T08:01:37;10.10;;;6.10;;
42092;SDS011;28974;50.316;18.960;2022-09-09T08:13:40;8.77;;;5.80;;
42092;SDS011;28974;50.316;18.960;2022-09-09T08:25:41;7.47;;;4.88;;
42092;SDS011;28974;50.316;18.960;2022-09-09T08:37:42;11.40;;;4.27;;
42092;SDS011;28974;50.316;18.960;2022-09-09T09:02:00;11.70;;;4.55;;
42092;SDS011;28974;50.316;18.960;2022-09-09T09:14:14;7.72;;;3.60;;
42092;SDS011;28974;50.316;18.960;2022-09-09T09:26:18;6.20;;;4.27;;
42092;SDS011;28974;50.316;18.960;2022-09-09T09:38:23;5.75;;;3.95;;
42092;SDS011;28974;50.316;18.960;2022-09-09T09:50:29;8.13;;;3.58;;
42092;SDS011;28974;50.316;18.960;2022-09-09T10:02:37;6.35;;;2.08;;
42092;SDS011;28974;50.316;18.960;2022-09-09T10:15:01;3.42;;;2.40;;
42092;SDS011;28974;50.316;18.960;2022-09-09T10:27:11;3.17;;;2.33;;
42092;SDS011;28974;50.316;18.960;2022-09-09T10:39:22;12.68;;;2.80;;
42092;SDS011;28974;50.316;18.960;2022-09-09T11:03:31;4.32;;;2.20;;
42092;SDS011;28974;50.316;18.960;2022-09-09T11:15:39;5.40;;;2.53;;
42092;SDS011;28974;50.316;18.960;2022-09-09T11:27:54;3.80;;;1.90;;
42092;SDS011;28974;50.316;18.960;2022-09-09T11:40:17;5.63;;;2.13;;
42092;SDS011;28974;50.316;18.960;2022-09-09T11:52:20;5.95;;;2.10;;
42092;SDS011;28974;50.316;18.960;2022-09-09T12:16:34;5.40;;;1.77;;
42092;SDS011;28974;50.316;18.960;2022-09-09T12:28:44;13.63;;;2.00;;
42092;SDS011;28974;50.316;18.960;2022-09-09T12:40:53;6.30;;;2.30;;
42092;SDS011;28974;50.316;18.960;2022-09-09T12:52:55;4.50;;;2.00;;
42092;SDS011;28974;50.316;18.960;2022-09-09T13:05:05;7.72;;;2.20;;
42092;SDS011;28974;50.316;18.960;2022-09-09T13:17:06;3.92;;;1.90;;
42092;SDS011;28974;50.316;18.960;2022-09-09T13:29:09;4.20;;;2.28;;
42092;SDS011;28974;50.316;18.960;2022-09-09T13:41:19;9.80;;;2.75;;
42092;SDS011;28974;50.316;18.960;2022-09-09T13:53:22;6.90;;;2.53;;
42092;SDS011;28974;50.316;18.960;2022-09-09T14:05:22;4.70;;;2.45;;
42092;SDS011;28974;50.316;18.960;2022-09-09T14:17:22;4.47;;;2.17;;
42092;SDS011;28974;50.316;18.960;2022-09-09T14:29:25;5.47;;;2.05;;
42092;SDS011;28974;50.316;18.960;2022-09-09T14:41:26;5.82;;;2.15;;
42092;SDS011;28974;50.316;18.960;2022-09-09T14:53:27;4.57;;;1.95;;
42092;SDS011;28974;50.316;18.960;2022-09-09T15:05:27;5.28;;;2.05;;
42092;SDS011;28974;50.316;18.960;2022-09-09T15:17:29;6.10;;;2.28;;
42092;SDS011;28974;50.316;18.960;2022-09-09T15:29:29;4.95;;;2.15;;
42092;SDS011;28974;50.316;18.960;2022-09-09T15:41:30;4.38;;;1.90;;
42092;SDS011;28974;50.316;18.960;2022-09-09T15:53:31;9.80;;;2.33;;
42092;SDS011;28974;50.316;18.960;2022-09-09T16:05:32;6.38;;;2.70;;
42092;SDS011;28974;50.316;18.960;2022-09-09T16:17:33;10.37;;;5.07;;
42092;SDS011;28974;50.316;18.960;2022-09-09T16:29:37;7.65;;;3.30;;
42092;SDS011;28974;50.316;18.960;2022-09-09T16:41:38;5.18;;;3.05;;
42092;SDS011;28974;50.316;18.960;2022-09-09T16:53:39;10.35;;;4.50;;
42092;SDS011;28974;50.316;18.960;2022-09-09T17:05:39;16.52;;;7.28;;
42092;SDS011;28974;50.316;18.960;2022-09-09T17:17:40;8.18;;;4.38;;
42092;SDS011;28974;50.316;18.960;2022-09-09T17:29:43;11.25;;;4.28;;
42092;SDS011;28974;50.316;18.960;2022-09-09T17:41:44;33.40;;;4.55;;
42092;SDS011;28974;50.316;18.960;2022-09-09T17:53:47;7.43;;;4.13;;
42092;SDS011;28974;50.316;18.960;2022-09-09T18:05:48;12.18;;;4.45;;
42092;SDS011;28974;50.316;18.960;2022-09-09T18:17:49;20.03;;;5.63;;
42092;SDS011;28974;50.316;18.960;2022-09-09T18:29:49;22.00;;;7.35;;
42092;SDS011;28974;50.316;18.960;2022-09-09T18:41:50;18.60;;;7.90;;
42092;SDS011;28974;50.316;18.960;2022-09-09T18:53:52;31.98;;;12.00;;
42092;SDS011;28974;50.316;18.960;2022-09-09T19:05:59;38.40;;;16.52;;
42092;SDS011;28974;50.316;18.960;2022-09-09T19:18:00;105.93;;;49.90;;
42092;SDS011;28974;50.316;18.960;2022-09-09T19:30:00;99.97;;;52.33;;
42092;SDS011;28974;50.316;18.960;2022-09-09T19:42:00;59.60;;;25.73;;
42092;SDS011;28974;50.316;18.960;2022-09-09T20:06:05;26.52;;;16.23;;
42092;SDS011;28974;50.316;18.960;2022-09-09T20:18:07;28.15;;;14.18;;
42092;SDS011;28974;50.316;18.960;2022-09-09T20:30:07;27.10;;;15.52;;
42092;SDS011;28974;50.316;18.960;2022-09-09T20:42:08;30.23;;;15.10;;
42092;SDS011;28974;50.316;18.960;2022-09-09T20:54:11;20.63;;;13.20;;
42092;SDS011;28974;50.316;18.960;2022-09-09T21:06:13;28.58;;;15.63;;
42092;SDS011;28974;50.316;18.960;2022-09-09T21:18:16;27.75;;;13.25;;
42092;SDS011;28974;50.316;18.960;2022-09-09T21:30:17;29.50;;;14.38;;
42092;SDS011;28974;50.316;18.960;2022-09-09T21:42:18;26.67;;;15.50;;
42092;SDS011;28974;50.316;18.960;2022-09-09T21:54:19;24.23;;;14.48;;
42092;SDS011;28974;50.316;18.960;2022-09-09T22:06:19;31.83;;;14.57;;
42092;SDS011;28974;50.316;18.960;2022-09-09T22:18:20;41.58;;;17.08;;
42092;SDS011;28974;50.316;18.960;2022-09-09T22:30:20;50.88;;;24.42;;
42092;SDS011;28974;50.316;18.960;2022-09-09T22:42:20;64.65;;;29.27;;
42092;SDS011;28974;50.316;18.960;2022-09-09T22:54:21;52.85;;;26.80;;
42092;SDS011;28974;50.316;18.960;2022-09-09T23:06:23;59.28;;;25.08;;
42092;SDS011;28974;50.316;18.960;2022-09-09T23:18:23;51.78;;;24.00;;
42092;SDS011;28974;50.316;18.960;2022-09-09T23:30:26;45.15;;;24.42;;
42092;SDS011;28974;50.316;18.960;2022-09-09T23:42:26;31.23;;;16.30;;
42092;SDS011;28974;50.316;18.960;2022-09-09T23:54:27;37.17;;;16.30;;
